Time;durP1;ratioP1;P1;durP2;ratioP2;P2;SDS_P1;SDS_P2;PMS_P1;PMS_P2;Temp;Humidity;BMP_temperature;BMP_pressure;BME280_temperature;BME280_humidity;BME280_pressure;Samples;Min_cycle;Max_cycle;Signal;HPM_P1;HPM_P2
2023/08/05 00:00:12;;;;;;;;;;;;;;;28.20;33.47;100077.81;6129229;23;19935;-64
2023/08/05 00:02:37;;;;;;;;;;;;;;;28.13;33.59;100072.75;6155398;23;19978;-64
2023/08/05 00:05:03;;;;;;;;;;;;;;;28.12;34.21;100068.38;6155826;23;19908;-64
2023/08/05 00:07:29;;;;;;;;;;;;;;;28.02;33.75;100071.41;6155946;23;20282;-65
2023/08/05 00:09:54;;;;;;;;;;;;;;;28.06;33.69;100066.88;6155159;23;19959;-65
2023/08/05 00:12:19;;;;;;;;;;;;;;;28.07;33.80;100070.47;6155327;23;20281;-64
2023/08/05 00:14:46;;;;;;;;;;;;;;;28.02;33.93;100057.63;6155082;23;19987;-64
2023/08/05 00:17:12;;;;;;;;;;;;;;;27.93;34.01;100065.88;6155617;23;19908;-64
2023/08/05 00:19:37;;;;;;;;;;;;;;;27.90;34.15;100069.28;6156198;23;19908;-65
2023/08/05 00:22:02;;;;;;;;;;;;;;;27.88;34.43;100063.25;6155547;23;20250;-65
2023/08/05 00:24:27;;;;;;;;;;;;;;;27.83;34.63;100071.66;6156118;23;19908;-65
2023/08/05 00:26:53;;;;;;;;;;;;;;;27.78;34.69;100069.84;6155841;23;19940;-65
2023/08/05 00:29:18;;;;;;;;;;;;;;;27.77;34.85;100070.19;6155610;23;20262;-65
2023/08/05 00:31:43;;;;;;;;;;;;;;;27.76;34.70;100068.53;6155701;23;19918;-65
2023/08/05 00:34:08;;;;;;;;;;;;;;;27.76;34.39;100069.34;6155837;23;20008;-65
2023/08/05 00:36:34;;;;;;;;;;;;;;;27.76;34.59;100065.78;6155726;23;19913;-65
2023/08/05 00:38:59;;;;;;;;;;;;;;;27.75;34.38;100066.94;6155206;23;19931;-65
2023/08/05 00:41:24;;;;;;;;;;;;;;;27.68;35.04;100074.84;6155062;23;19908;-65
2023/08/05 00:43:50;;;;;;;;;;;;;;;27.69;34.91;100065.44;6155127;23;19908;-65
2023/08/05 00:46:16;;;;;;;;;;;;;;;27.60;35.16;100080.03;6155354;23;20334;-65
2023/08/05 00:48:42;;;;;;;;;;;;;;;27.60;35.00;100066.22;6154721;23;20291;-65
2023/08/05 00:51:08;;;;;;;;;;;;;;;27.58;35.00;100068.50;6155300;23;19915;-65
2023/08/05 00:53:36;;;;;;;;;;;;;;;27.59;35.03;100064.59;6154794;23;20346;-65
2023/08/05 00:56:01;;;;;;;;;;;;;;;27.58;34.71;100071.25;6155085;23;19995;-65
2023/08/05 00:58:27;;;;;;;;;;;;;;;27.56;34.93;100070.75;6155372;23;19950;-65
2023/08/05 01:00:53;;;;;;;;;;;;;;;27.59;34.78;100070.09;6155264;23;19936;-65
2023/08/05 01:03:18;;;;;;;;;;;;;;;27.58;34.83;100067.66;6155059;23;19943;-65
2023/08/05 01:05:44;;;;;;;;;;;;;;;27.51;35.01;100062.59;6155780;23;20000;-65
2023/08/05 01:08:10;;;;;;;;;;;;;;;27.53;34.71;100063.09;6154636;23;20318;-64
2023/08/05 01:10:36;;;;;;;;;;;;;;;27.51;34.63;100061.81;6155359;23;20010;-65
2023/08/05 01:13:01;;;;;;;;;;;;;;;27.50;34.83;100065.69;6154832;23;20295;-65
2023/08/05 01:15:26;;;;;;;;;;;;;;;27.51;34.94;100059.84;6155291;23;19963;-65
2023/08/05 01:17:53;;;;;;;;;;;;;;;27.50;34.71;100068.44;6129243;23;19912;-65
2023/08/05 01:20:19;;;;;;;;;;;;;;;27.46;34.79;100067.44;6155385;23;19919;-65
2023/08/05 01:22:49;;;;;;;;;;;;;;;27.39;34.66;100065.13;6155303;23;19920;-65
2023/08/05 01:25:24;;;;;;;;;;;;;;;27.33;34.93;100074.69;6155282;23;20396;-65
2023/08/05 01:27:52;;;;;;;;;;;;;;;27.37;35.07;100067.41;6155560;23;19995;-65
2023/08/05 01:30:17;;;;;;;;;;;;;;;27.33;35.03;100061.69;6155534;23;20018;-65
2023/08/05 01:32:42;;;;;;;;;;;;;;;27.32;35.10;100062.00;6155298;23;19913;-65
2023/08/05 01:35:09;;;;;;;;;;;;;;;27.27;35.22;100065.72;6155561;23;19909;-65
2023/08/05 01:37:34;;;;;;;;;;;;;;;27.16;35.53;100072.59;6155334;23;19960;-65
2023/08/05 01:40:00;;;;;;;;;;;;;;;27.12;35.50;100074.38;6155315;23;19908;-65
2023/08/05 01:42:25;;;;;;;;;;;;;;;27.11;35.26;100069.97;6155654;23;19940;-65
2023/08/05 01:44:50;;;;;;;;;;;;;;;27.11;35.42;100073.53;6155584;23;19915;-65
2023/08/05 01:47:16;;;;;;;;;;;;;;;27.09;35.36;100073.03;6128208;23;19913;-65
2023/08/05 01:49:41;;;;;;;;;;;;;;;27.07;35.38;100069.78;6155207;23;19909;-65
2023/08/05 01:52:06;;;;;;;;;;;;;;;27.07;35.48;100069.78;6155106;23;19908;-65
2023/08/05 01:54:32;;;;;;;;;;;;;;;27.05;35.61;100066.53;6157272;23;19915;-65
2023/08/05 01:56:57;;;;;;;;;;;;;;;27.02;35.84;100067.16;6157207;23;19909;-65
2023/08/05 01:59:22;;;;;;;;;;;;;;;27.00;36.03;100069.41;6157045;23;19909;-65
2023/08/05 02:01:48;;;;;;;;;;;;;;;26.99;35.94;100065.84;6156802;23;19940;-65
2023/08/05 02:04:14;;;;;;;;;;;;;;;27.00;35.78;100069.41;6156959;23;19908;-65
2023/08/05 02:06:39;;;;;;;;;;;;;;;27.01;35.97;100065.53;6130777;23;19913;-65
2023/08/05 02:09:05;;;;;;;;;;;;;;;27.03;35.88;100055.81;6157217;23;19924;-65
2023/08/05 02:11:31;;;;;;;;;;;;;;;26.99;35.94;100054.81;6157194;23;19909;-65
2023/08/05 02:13:56;;;;;;;;;;;;;;;26.95;36.01;100055.75;6156756;23;20539;-65
2023/08/05 02:16:21;;;;;;;;;;;;;;;26.93;36.03;100058.00;6130700;23;19964;-65
2023/08/05 02:18:48;;;;;;;;;;;;;;;26.97;35.71;100059.03;6156905;23;19908;-64
2023/08/05 02:21:13;;;;;;;;;;;;;;;26.94;36.04;100051.38;6157075;23;19917;-65
2023/08/05 02:23:39;;;;;;;;;;;;;;;26.96;36.17;100066.47;6156852;23;20359;-65
2023/08/05 02:26:04;;;;;;;;;;;;;;;26.96;36.19;100068.41;6156864;23;19919;-65
2023/08/05 02:28:29;;;;;;;;;;;;;;;26.98;36.14;100071.66;6156603;23;20263;-65
2023/08/05 02:30:55;;;;;;;;;;;;;;;27.00;36.13;100069.41;6157000;23;19918;-64
2023/08/05 02:33:20;;;;;;;;;;;;;;;27.03;36.25;100075.09;6156581;23;19909;-65
2023/08/05 02:35:46;;;;;;;;;;;;;;;27.03;36.11;100074.31;6156693;23;19924;-65
2023/08/05 02:38:11;;;;;;;;;;;;;;;27.05;36.15;100077.56;6156601;23;20298;-65
2023/08/05 02:40:36;;;;;;;;;;;;;;;27.07;36.38;100086.31;6156651;23;19909;-65
2023/08/05 02:43:02;;;;;;;;;;;;;;;27.12;36.21;100082.63;6156631;23;19909;-65
2023/08/05 02:45:27;;;;;;;;;;;;;;;27.16;36.50;100086.38;6130498;23;19909;-65
2023/08/05 02:47:52;;;;;;;;;;;;;;;27.17;36.16;100085.25;6155527;23;19936;-65
2023/08/05 02:50:18;;;;;;;;;;;;;;;27.17;36.33;100085.25;6156045;23;19919;-65
2023/08/05 02:52:43;;;;;;;;;;;;;;;27.16;36.13;100087.19;6156354;23;19916;-65
2023/08/05 02:55:08;;;;;;;;;;;;;;;27.19;36.26;100086.59;6156272;23;19909;-65
2023/08/05 02:57:33;;;;;;;;;;;;;;;27.15;35.89;100093.03;6156462;23;19912;-65
2023/08/05 02:59:59;;;;;;;;;;;;;;;27.13;35.85;100095.28;6156213;23;19992;-65
2023/08/05 03:02:24;;;;;;;;;;;;;;;27.09;35.96;100088.78;6156240;23;20254;-66
2023/08/05 03:04:49;;;;;;;;;;;;;;;27.02;36.46;100080.94;6155772;23;19931;-65
2023/08/05 03:07:15;;;;;;;;;;;;;;;27.04;36.17;100081.44;6156222;23;20483;-65
2023/08/05 03:09:40;;;;;;;;;;;;;;;26.99;36.61;100084.34;6155689;23;20287;-65
2023/08/05 03:12:07;;;;;;;;;;;;;;;26.99;36.56;100087.91;6156452;23;19909;-65
2023/08/05 03:14:32;;;;;;;;;;;;;;;26.93;37.48;100093.84;6156307;23;19913;-65
2023/08/05 03:16:58;;;;;;;;;;;;;;;26.84;38.37;100091.84;6155853;23;19916;-66
2023/08/05 03:19:23;;;;;;;;;;;;;;;26.75;38.24;100109.44;6156387;23;19909;-65
2023/08/05 03:21:48;;;;;;;;;;;;;;;26.69;38.16;100099.63;6156315;23;20350;-65
2023/08/05 03:24:13;;;;;;;;;;;;;;;26.59;38.69;100103.41;6155993;23;19917;-65
2023/08/05 03:26:39;;;;;;;;;;;;;;;26.54;38.62;100109.88;6155581;23;19939;-64
2023/08/05 03:29:04;;;;;;;;;;;;;;;26.50;38.62;100106.06;6156036;23;19920;-65
2023/08/05 03:31:29;;;;;;;;;;;;;;;26.44;38.85;100099.88;6155965;23;20322;-65
2023/08/05 03:33:55;;;;;;;;;;;;;;;26.40;38.92;100106.31;6156096;23;19908;-65
2023/08/05 03:36:20;;;;;;;;;;;;;;;26.40;39.04;100104.38;6155356;23;20320;-64
2023/08/05 03:38:45;;;;;;;;;;;;;;;26.40;39.38;100103.56;6155427;23;19908;-65
2023/08/05 03:41:10;;;;;;;;;;;;;;;26.42;39.26;100099.38;6155139;23;19912;-65
2023/08/05 03:43:36;;;;;;;;;;;;;;;26.41;38.87;100099.66;6155776;23;19909;-65
2023/08/05 03:46:01;;;;;;;;;;;;;;;26.42;38.98;100099.38;6155797;23;19927;-65
2023/08/05 03:48:26;;;;;;;;;;;;;;;26.45;38.76;100103.47;6155349;23;19916;-65
2023/08/05 03:50:52;;;;;;;;;;;;;;;26.47;38.88;100095.69;6155781;23;19908;-65
2023/08/05 03:53:17;;;;;;;;;;;;;;;26.48;38.90;100105.56;6155887;23;20212;-65
2023/08/05 03:55:42;;;;;;;;;;;;;;;26.46;38.88;100100.38;6155749;23;19930;-65
2023/08/05 03:58:07;;;;;;;;;;;;;;;26.44;39.05;100105.38;6156107;23;19916;-65
2023/08/05 04:00:34;;;;;;;;;;;;;;;26.45;38.93;100107.00;6155807;23;19931;-65
2023/08/05 04:03:00;;;;;;;;;;;;;;;26.44;38.93;100107.31;6155528;23;20239;-65
2023/08/05 04:05:25;;;;;;;;;;;;;;;26.44;39.47;100108.13;6155789;23;19909;-65
2023/08/05 04:07:53;;;;;;;;;;;;;;;26.45;39.18;100111.72;6155922;23;19913;-65
2023/08/05 04:10:21;;;;;;;;;;;;;;;26.43;39.24;100114.78;6155807;23;19908;-65
2023/08/05 04:12:47;;;;;;;;;;;;;;;26.41;39.56;100119.78;6155841;23;19915;-65
2023/08/05 04:15:13;;;;;;;;;;;;;;;26.45;39.18;100117.22;6155670;23;19915;-65
2023/08/05 04:17:38;;;;;;;;;;;;;;;26.44;39.40;100121.91;6155731;23;20251;-65
2023/08/05 04:20:04;;;;;;;;;;;;;;;26.42;39.58;100124.16;6156039;23;20314;-65
2023/08/05 04:22:30;;;;;;;;;;;;;;;26.46;39.43;100127.91;6155601;23;19916;-65
2023/08/05 04:24:57;;;;;;;;;;;;;;;26.46;39.45;100125.16;6156062;23;19910;-65
2023/08/05 04:27:22;;;;;;;;;;;;;;;26.46;39.36;100119.66;6155675;23;19940;-65
2023/08/05 04:29:48;;;;;;;;;;;;;;;26.49;39.18;100126.50;6155900;23;20362;-65
2023/08/05 04:32:13;;;;;;;;;;;;;;;26.43;39.47;100122.22;6155642;23;19908;-65
2023/08/05 04:34:39;;;;;;;;;;;;;;;26.40;39.44;100128.34;6155748;23;19913;-65
2023/08/05 04:37:20;;;;;;;;;;;;;;;26.39;39.63;100122.03;6155399;23;20203;-65
2023/08/05 04:39:45;;;;;;;;;;;;;;;26.37;39.45;100127.00;6155420;23;19909;-65
2023/08/05 04:42:11;;;;;;;;;;;;;;;26.38;39.91;100117.63;6155622;23;19909;-65
2023/08/05 04:44:40;;;;;;;;;;;;;;;26.42;39.91;100124.16;6155476;23;20266;-65
2023/08/05 04:47:08;;;;;;;;;;;;;;;26.41;39.95;100122.53;6154892;23;19913;-65
2023/08/05 04:49:33;;;;;;;;;;;;;;;26.45;39.63;100131.81;6155315;23;20242;-65
2023/08/05 04:51:59;;;;;;;;;;;;;;;26.45;39.54;100125.50;6155242;23;19916;-65
2023/08/05 04:54:24;;;;;;;;;;;;;;;26.46;39.57;100136.16;6155222;23;19971;-65
2023/08/05 04:56:49;;;;;;;;;;;;;;;26.50;39.69;100130.06;6155247;23;19982;-65
2023/08/05 04:59:15;;;;;;;;;;;;;;;26.53;39.73;100126.69;6155275;23;19909;-65
2023/08/05 05:01:40;;;;;;;;;;;;;;;26.57;39.80;100128.50;6155596;23;19916;-65
2023/08/05 05:04:05;;;;;;;;;;;;;;;26.62;39.78;100127.63;6154886;23;20226;-65
2023/08/05 05:06:30;;;;;;;;;;;;;;;26.65;39.50;100132.50;6155594;23;19909;-65
2023/08/05 05:08:56;;;;;;;;;;;;;;;26.69;39.85;100132.69;6155354;23;19930;-65
2023/08/05 05:11:21;;;;;;;;;;;;;;;26.75;39.76;100132.28;6155027;23;19916;-65
2023/08/05 05:13:50;;;;;;;;;;;;;;;26.79;39.60;100136.03;6155273;23;19909;-65
2023/08/05 05:16:16;;;;;;;;;;;;;;;26.83;39.68;100136.22;6154855;23;19915;-65
2023/08/05 05:18:41;;;;;;;;;;;;;;;26.88;39.73;100132.56;6128693;23;20389;-65
2023/08/05 05:21:06;;;;;;;;;;;;;;;26.93;39.84;100140.69;6154809;23;19995;-65
2023/08/05 05:23:32;;;;;;;;;;;;;;;26.96;39.67;100138.13;6154786;23;19909;-65
2023/08/05 05:25:57;;;;;;;;;;;;;;;27.03;39.45;100140.47;6154677;23;19936;-64
2023/08/05 05:28:22;;;;;;;;;;;;;;;27.07;39.40;100151.69;6155860;23;19964;-65
2023/08/05 05:30:48;;;;;;;;;;;;;;;27.12;39.17;100151.56;6156729;23;19995;-64
2023/08/05 05:33:13;;;;;;;;;;;;;;;27.14;39.14;100150.09;6156540;23;19996;-64
2023/08/05 05:35:38;;;;;;;;;;;;;;;27.16;38.96;100147.03;6157136;23;19979;-64
2023/08/05 05:38:03;;;;;;;;;;;;;;;27.21;38.71;100142.22;6156961;23;20373;-64
2023/08/05 05:40:29;;;;;;;;;;;;;;;27.24;38.82;100149.03;6157165;23;19908;-64
2023/08/05 05:42:54;;;;;;;;;;;;;;;27.28;38.92;100147.31;6157094;23;19980;-65
2023/08/05 05:45:21;;;;;;;;;;;;;;;27.33;39.22;100143.63;6157308;23;19940;-65
2023/08/05 05:47:46;;;;;;;;;;;;;;;27.40;38.78;100150.31;6156025;23;19928;-64
2023/08/05 05:50:12;;;;;;;;;;;;;;;27.49;38.69;100149.53;6156785;23;19912;-64
2023/08/05 05:52:37;;;;;;;;;;;;;;;27.54;38.54;100153.00;6156962;23;19908;-64
2023/08/05 05:55:03;;;;;;;;;;;;;;;27.60;38.52;100157.25;6156660;23;19999;-64
2023/08/05 05:57:28;;;;;;;;;;;;;;;27.65;38.84;100158.25;6156244;23;19908;-64
2023/08/05 05:59:54;;;;;;;;;;;;;;;27.67;38.75;100156.00;6156700;23;20343;-64
2023/08/05 06:02:20;;;;;;;;;;;;;;;27.76;38.45;100151.34;6156810;23;19927;-64
2023/08/05 06:04:47;;;;;;;;;;;;;;;27.73;38.80;100160.22;6157154;23;20496;-65
2023/08/05 06:07:12;;;;;;;;;;;;;;;27.80;38.50;100163.34;6156814;23;19912;-64
2023/08/05 06:09:37;;;;;;;;;;;;;;;27.83;38.13;100164.69;6157309;23;19909;-64
2023/08/05 06:12:03;;;;;;;;;;;;;;;27.78;38.18;100157.34;6156413;23;19909;-64
2023/08/05 06:14:29;;;;;;;;;;;;;;;27.77;37.92;100164.81;6156444;23;19955;-64
2023/08/05 06:16:54;;;;;;;;;;;;;;;27.72;38.08;100170.47;6156801;23;19919;-65
2023/08/05 06:19:20;;;;;;;;;;;;;;;27.71;37.62;100168.03;6156939;23;19995;-64
2023/08/05 06:21:45;;;;;;;;;;;;;;;27.71;38.09;100168.03;6156805;23;19908;-64
2023/08/05 06:24:11;;;;;;;;;;;;;;;27.70;37.91;100169.97;6130659;23;19999;-64
2023/08/05 06:26:36;;;;;;;;;;;;;;;27.71;37.85;100168.03;6156323;23;19954;-64
2023/08/05 06:29:02;;;;;;;;;;;;;;;27.75;37.61;100167.09;6156568;23;19908;-65
2023/08/05 06:31:27;;;;;;;;;;;;;;;27.80;37.47;100166.13;6156757;23;19908;-65
2023/08/05 06:33:52;;;;;;;;;;;;;;;27.74;37.56;100167.41;6156248;23;20234;-65
2023/08/05 06:36:18;;;;;;;;;;;;;;;27.77;37.70;100173.09;6156669;23;19908;-64
2023/08/05 06:38:43;;;;;;;;;;;;;;;27.80;37.71;100177.16;6156359;23;19963;-65
2023/08/05 06:41:09;;;;;;;;;;;;;;;27.81;37.43;100176.03;6156117;23;19932;-64
2023/08/05 06:43:34;;;;;;;;;;;;;;;27.80;37.26;100175.22;6156261;23;19971;-64
2023/08/05 06:46:00;;;;;;;;;;;;;;;27.82;37.65;100174.88;6156849;23;19914;-65
2023/08/05 06:48:25;;;;;;;;;;;;;;;27.84;37.61;100180.94;6155518;23;20488;-66
2023/08/05 06:50:50;;;;;;;;;;;;;;;27.86;37.51;100178.66;6156213;23;19908;-64
2023/08/05 06:53:16;;;;;;;;;;;;;;;27.93;37.52;100176.28;6156393;23;19909;-65
2023/08/05 06:55:41;;;;;;;;;;;;;;;28.09;37.52;100173.13;6156262;23;19909;-64
2023/08/05 06:58:06;;;;;;;;;;;;;;;28.23;37.68;100175.75;6156415;23;19916;-63
2023/08/05 07:00:31;;;;;;;;;;;;;;;28.33;37.44;100183.75;6156028;23;19908;-66
2023/08/05 07:03:01;;;;;;;;;;;;;;;28.38;37.09;100178.91;6155979;23;19967;-65
2023/08/05 07:05:27;;;;;;;;;;;;;;;28.43;37.04;100179.88;6129811;23;19991;-64
2023/08/05 07:07:52;;;;;;;;;;;;;;;28.46;37.29;100182.00;6155996;23;20329;-65
2023/08/05 07:10:20;;;;;;;;;;;;;;;28.52;37.12;100183.47;6156120;23;19912;-65
2023/08/05 07:12:45;;;;;;;;;;;;;;;28.53;36.88;100185.97;6156280;23;19915;-65
2023/08/05 07:15:11;;;;;;;;;;;;;;;28.57;36.93;100188.91;6155802;23;19915;-65
2023/08/05 07:17:36;;;;;;;;;;;;;;;28.63;37.16;100184.84;6155991;23;19909;-64
2023/08/05 07:20:04;;;;;;;;;;;;;;;28.69;36.83;100179.97;6156459;23;20015;-65
2023/08/05 07:22:29;;;;;;;;;;;;;;;28.74;36.84;100180.63;6156134;23;19913;-64
2023/08/05 07:24:55;;;;;;;;;;;;;;;28.80;36.31;100180.47;6156287;23;19909;-64
2023/08/05 07:27:20;;;;;;;;;;;;;;;28.86;36.76;100177.25;6156031;23;19919;-64
2023/08/05 07:29:46;;;;;;;;;;;;;;;28.98;36.77;100171.06;6156311;23;19909;-64
2023/08/05 07:32:11;;;;;;;;;;;;;;;29.11;36.63;100170.06;6156209;23;20397;-65
2023/08/05 07:34:36;;;;;;;;;;;;;;;29.22;35.93;100169.78;6156093;23;19909;-65
2023/08/05 07:37:01;;;;;;;;;;;;;;;29.34;35.83;100170.72;6156084;23;19975;-65
2023/08/05 07:39:33;;;;;;;;;;;;;;;29.42;36.08;100174.66;6155898;23;19915;-65
2023/08/05 07:41:59;;;;;;;;;;;;;;;29.51;36.05;100169.06;6155852;23;19909;-65
2023/08/05 07:44:24;;;;;;;;;;;;;;;29.61;36.30;100167.94;6156287;23;19979;-65
2023/08/05 07:46:52;;;;;;;;;;;;;;;29.68;35.58;100168.22;6154828;23;19913;-65
2023/08/05 07:49:17;;;;;;;;;;;;;;;29.75;36.08;100165.78;6155721;23;19909;-65
2023/08/05 07:51:46;;;;;;;;;;;;;;;29.81;35.29;100172.81;6155408;23;19916;-65
2023/08/05 07:54:11;;;;;;;;;;;;;;;29.88;34.86;100167.56;6155947;23;20222;-65
2023/08/05 07:56:39;;;;;;;;;;;;;;;29.89;34.65;100166.41;6156052;23;19916;-65
2023/08/05 07:59:04;;;;;;;;;;;;;;;29.97;34.77;100161.97;6156016;23;19909;-65
2023/08/05 08:01:31;;;;;;;;;;;;;;;30.05;35.24;100166.69;6155992;23;20274;-65
2023/08/05 08:04:01;;;;;;;;;;;;;;;30.13;34.99;100166.94;6155584;23;19917;-65
2023/08/05 08:06:28;;;;;;;;;;;;;;;30.27;35.03;100165.59;6130562;23;19916;-65
2023/08/05 08:08:55;;;;;;;;;;;;;;;30.35;34.35;100165.91;6154978;23;20395;-65
2023/08/05 08:11:21;;;;;;;;;;;;;;;30.35;34.50;100171.44;6155692;23;20303;-65
2023/08/05 08:13:46;;;;;;;;;;;;;;;30.36;34.23;100167.53;6155543;23;19928;-65
2023/08/05 08:16:13;;;;;;;;;;;;;;;30.36;35.02;100173.06;6155699;23;20234;-65
2023/08/05 08:18:38;;;;;;;;;;;;;;;30.35;34.80;100166.72;6156156;23;20242;-65
2023/08/05 08:21:04;;;;;;;;;;;;;;;30.41;34.70;100162.59;6155864;23;19924;-65
2023/08/05 08:23:29;;;;;;;;;;;;;;;30.43;34.40;100162.28;6155265;23;19959;-63
2023/08/05 08:25:58;;;;;;;;;;;;;;;30.51;34.07;100158.63;6155355;23;20263;-63
2023/08/05 08:28:24;;;;;;;;;;;;;;;30.57;34.47;100160.06;6155270;23;19913;-63
2023/08/05 08:30:53;;;;;;;;;;;;;;;30.65;34.42;100158.38;6155391;23;20455;-63
2023/08/05 08:33:19;;;;;;;;;;;;;;;30.75;33.94;100165.50;6155592;23;20373;-63
2023/08/05 08:35:44;;;;;;;;;;;;;;;30.75;33.29;100163.53;6155531;23;19913;-64
2023/08/05 08:38:09;;;;;;;;;;;;;;;30.79;33.35;100167.22;6155318;23;19908;-64
2023/08/05 08:40:45;;;;;;;;;;;;;;;30.73;33.06;100173.34;6155633;23;20223;-64
2023/08/05 08:43:10;;;;;;;;;;;;;;;30.76;33.39;100178.19;6155611;23;20000;-64
2023/08/05 08:45:36;;;;;;;;;;;;;;;30.82;33.45;100176.84;6155596;23;20260;-64
2023/08/05 08:48:01;;;;;;;;;;;;;;;30.95;33.41;100175.00;6154114;23;19944;-66
2023/08/05 08:50:29;;;;;;;;;;;;;;;31.14;33.22;100171.72;6155436;23;19931;-63
2023/08/05 08:52:57;;;;;;;;;;;;;;;31.36;32.94;100171.34;6156107;23;19924;-63
2023/08/05 08:55:23;;;;;;;;;;;;;;;31.51;33.18;100175.47;6155036;23;19908;-63
2023/08/05 08:57:49;;;;;;;;;;;;;;;31.68;32.65;100180.03;6104535;23;19999;-63
2023/08/05 09:00:14;;;;;;;;;;;;;;;31.71;32.57;100178.56;6155105;23;19993;-64
2023/08/05 09:02:40;;;;;;;;;;;;;;;31.70;32.21;100172.16;6154499;23;20286;-63
2023/08/05 09:05:05;;;;;;;;;;;;;;;31.72;31.47;100180.97;6154990;23;19924;-63
2023/08/05 09:07:31;;;;;;;;;;;;;;;31.72;31.91;100177.38;6154930;23;19947;-62
2023/08/05 09:09:57;;;;;;;;;;;;;;;31.70;32.03;100177.72;6155186;23;19947;-63
2023/08/05 09:12:22;;;;;;;;;;;;;;;31.63;31.47;100181.09;6155353;23;19963;-63
2023/08/05 09:14:56;;;;;;;;;;;;;;;31.63;32.05;100183.84;6154963;23;19909;-63
2023/08/05 09:17:21;;;;;;;;;;;;;;;31.62;32.44;100181.41;6154854;23;19916;-63
2023/08/05 09:19:46;;;;;;;;;;;;;;;31.58;31.68;100184.06;6155262;23;20279;-66
2023/08/05 09:22:12;;;;;;;;;;;;;;;31.50;32.85;100178.59;6154830;23;19959;-65
2023/08/05 09:24:37;;;;;;;;;;;;;;;31.42;31.87;100185.84;6104396;23;19913;-65
2023/08/05 09:27:03;;;;;;;;;;;;;;;31.48;31.91;100181.72;6154908;23;19912;-64
2023/08/05 09:29:28;;;;;;;;;;;;;;;31.47;31.79;100182.03;6155051;23;20305;-64
2023/08/05 09:31:56;;;;;;;;;;;;;;;31.40;31.88;100180.63;6154775;23;19914;-64
2023/08/05 09:34:30;;;;;;;;;;;;;;;31.33;32.46;100183.13;6155426;23;20011;-64
2023/08/05 09:36:56;;;;;;;;;;;;;;;31.28;31.81;100180.59;6128903;23;20387;-65
2023/08/05 09:39:22;;;;;;;;;;;;;;;31.24;31.95;100182.41;6154920;23;19936;-64
2023/08/05 09:41:53;;;;;;;;;;;;;;;31.17;31.67;100187.72;6155321;23;20311;-63
2023/08/05 09:44:20;;;;;;;;;;;;;;;31.14;31.47;100185.59;6129845;23;19936;-64
2023/08/05 09:46:46;;;;;;;;;;;;;;;31.12;32.40;100191.50;6127655;23;19908;-65
2023/08/05 09:49:16;;;;;;;;;;;;;;;31.11;32.24;100191.81;6155291;23;19908;-63
2023/08/05 09:51:42;;;;;;;;;;;;;;;31.12;32.50;100190.69;6154936;23;19908;-64
2023/08/05 09:54:09;;;;;;;;;;;;;;;31.08;31.30;100192.53;6154888;23;20227;-64
2023/08/05 09:56:34;;;;;;;;;;;;;;;31.06;31.85;100190.88;6164787;23;19909;-67
2023/08/05 09:59:00;;;;;;;;;;;;;;;31.20;31.48;100187.00;6160230;23;20008;-66
2023/08/05 10:01:26;;;;;;;;;;;;;;;31.22;30.62;100190.25;6158919;23;19909;-65
2023/08/05 10:03:52;;;;;;;;;;;;;;;31.44;31.83;100186.28;6154440;23;19916;-65
2023/08/05 10:06:18;;;;;;;;;;;;;;;31.61;30.51;100197.28;6154902;23;19912;-65
2023/08/05 10:08:44;;;;;;;;;;;;;;;31.93;30.34;100188.44;6154939;23;19920;-65
2023/08/05 10:11:10;;;;;;;;;;;;;;;32.17;30.51;100191.25;6154964;23;20274;-65
2023/08/05 10:13:37;;;;;;;;;;;;;;;32.32;30.06;100189.75;6155038;23;19916;-65
2023/08/05 10:16:03;;;;;;;;;;;;;;;32.53;29.75;100195.19;6156618;23;19934;-65
2023/08/05 10:18:28;;;;;;;;;;;;;;;32.75;29.81;100196.69;6156919;23;19964;-65
2023/08/05 10:20:53;;;;;;;;;;;;;;;32.99;29.84;100197.81;6130447;23;19912;-65
2023/08/05 10:23:19;;;;;;;;;;;;;;;33.17;30.19;100196.38;6157125;23;19909;-65
2023/08/05 10:25:44;;;;;;;;;;;;;;;33.17;30.54;100198.34;6157034;23;19959;-65
2023/08/05 10:28:10;;;;;;;;;;;;;;;33.27;29.71;100197.84;6156419;23;19934;-65
2023/08/05 10:30:42;;;;;;;;;;;;;;;33.29;30.02;100191.94;6156913;23;19908;-65
2023/08/05 10:33:07;;;;;;;;;;;;;;;33.38;28.17;100192.59;6156396;23;19916;-65
2023/08/05 10:35:39;;;;;;;;;;;;;;;33.41;29.04;100202.19;6156832;23;19909;-66
2023/08/05 10:38:16;;;;;;;;;;;;;;;33.54;30.03;100201.78;6156651;23;19913;-66
2023/08/05 10:40:45;;;;;;;;;;;;;;;33.51;28.36;100196.94;6156749;23;20305;-65
2023/08/05 10:43:10;;;;;;;;;;;;;;;33.38;28.07;100203.72;6156709;23;19970;-65
2023/08/05 10:45:40;;;;;;;;;;;;;;;33.36;28.30;100195.72;6140822;23;20326;-67
2023/08/05 10:48:09;;;;;;;;;;;;;;;33.62;27.37;100186.09;6151953;23;19923;-64
2023/08/05 10:50:38;;;;;;;;;;;;;;;33.70;27.54;100190.69;6153892;23;19936;-64
2023/08/05 10:53:07;;;;;;;;;;;;;;;33.72;27.51;100191.16;6153755;23;20319;-65
2023/08/05 10:55:44;;;;;;;;;;;;;;;33.81;27.34;100193.78;6150604;23;19991;-65
2023/08/05 10:58:09;;;;;;;;;;;;;;;34.13;27.84;100191.78;6153242;23;19940;-64
2023/08/05 11:00:37;;;;;;;;;;;;;;;34.38;28.04;100188.00;6153721;23;20243;-66
2023/08/05 11:03:22;;;;;;;;;;;;;;;34.50;26.38;100183.13;6150206;23;20359;-66
2023/08/05 11:05:47;;;;;;;;;;;;;;;34.61;26.32;100188.16;6154503;23;19908;-63
2023/08/05 11:08:17;;;;;;;;;;;;;;;34.72;27.86;100189.25;6153376;23;19913;-63
2023/08/05 11:10:44;;;;;;;;;;;;;;;35.03;27.06;100188.31;6150597;23;19909;-63
2023/08/05 11:13:10;;;;;;;;;;;;;;;35.28;26.18;100185.25;6154261;23;19909;-63
2023/08/05 11:15:39;;;;;;;;;;;;;;;35.71;28.25;100185.28;6150332;23;19912;-64
2023/08/05 11:18:06;;;;;;;;;;;;;;;35.89;27.44;100182.81;6151631;23;19940;-63
2023/08/05 11:20:32;;;;;;;;;;;;;;;35.98;26.16;100180.59;6153602;23;19908;-64
2023/08/05 11:22:57;;;;;;;;;;;;;;;36.05;28.59;100184.28;6152858;23;19909;-63
2023/08/05 11:25:22;;;;;;;;;;;;;;;36.10;27.66;100177.56;6153506;23;19962;-63
2023/08/05 11:27:52;;;;;;;;;;;;;;;36.12;27.20;100175.19;6126565;23;19938;-64
2023/08/05 11:30:18;;;;;;;;;;;;;;;36.16;27.27;100178.88;6154029;23;19913;-63
2023/08/05 11:32:53;;;;;;;;;;;;;;;36.12;26.67;100178.00;6152821;23;19915;-63
2023/08/05 11:35:19;;;;;;;;;;;;;;;35.94;26.23;100174.09;6146257;23;20019;-64
2023/08/05 11:37:44;;;;;;;;;;;;;;;35.92;25.55;100177.28;6153207;23;19943;-63
2023/08/05 11:40:09;;;;;;;;;;;;;;;36.01;26.80;100166.63;6150219;23;20488;-64
2023/08/05 11:42:39;;;;;;;;;;;;;;;36.12;25.83;100171.59;6150458;23;19938;-64
2023/08/05 11:45:06;;;;;;;;;;;;;;;36.43;26.83;100157.34;6153187;23;20293;-65
2023/08/05 11:47:35;;;;;;;;;;;;;;;36.61;26.19;100156.78;6151717;23;20012;-65
2023/08/05 11:50:02;;;;;;;;;;;;;;;36.88;25.56;100151.16;6153734;23;19912;-64
2023/08/05 11:52:27;;;;;;;;;;;;;;;37.05;25.68;100141.38;6125274;23;19913;-63
2023/08/05 11:54:58;;;;;;;;;;;;;;;37.10;25.72;100143.84;6150617;23;19916;-64
2023/08/05 11:57:23;;;;;;;;;;;;;;;37.25;25.02;100142.03;6153271;23;20238;-63
2023/08/05 11:59:49;;;;;;;;;;;;;;;37.42;24.60;100140.59;6151021;23;19940;-63
2023/08/05 12:02:15;;;;;;;;;;;;;;;37.61;24.94;100142.38;6152586;23;19920;-63
2023/08/05 12:04:50;;;;;;;;;;;;;;;38.00;27.57;100144.75;6151388;23;19908;-63
2023/08/05 12:07:20;;;;;;;;;;;;;;;38.03;26.14;100146.78;6152216;23;20326;-64
2023/08/05 12:10:02;;;;;;;;;;;;;;;38.01;24.09;100149.16;6153348;23;20354;-64
2023/08/05 12:12:28;;;;;;;;;;;;;;;37.88;23.66;100149.47;6152705;23;19909;-64
2023/08/05 12:15:06;;;;;;;;;;;;;;;37.86;23.63;100146.25;6153500;23;19935;-63
2023/08/05 12:17:31;;;;;;;;;;;;;;;37.84;24.66;100145.03;6150467;23;19915;-63
2023/08/05 12:19:58;;;;;;;;;;;;;;;37.76;23.46;100141.34;6153351;23;19909;-63
2023/08/05 12:22:23;;;;;;;;;;;;;;;37.64;24.95;100141.66;6103165;23;19908;-63
2023/08/05 12:24:48;;;;;;;;;;;;;;;37.38;23.78;100151.78;6151719;23;19919;-63
2023/08/05 12:27:15;;;;;;;;;;;;;;;37.15;24.91;100143.53;6152272;23;19947;-63
2023/08/05 12:29:41;;;;;;;;;;;;;;;37.31;24.24;100144.09;6125388;23;20319;-63